Time;durP1;ratioP1;P1;durP2;ratioP2;P2;SDS_P1;SDS_P2;PMS_P1;PMS_P2;Temp;Humidity;BMP_temperature;BMP_pressure;BME280_temperature;BME280_humidity;BME280_pressure;Samples;Min_cycle;Max_cycle;Signal;HPM_P1;HPM_P2
2021/01/02 00:00:22;;;;;;;21.92;15.10;;;5.00;99.90;;;;;;5062302;28;20205;-76
2021/01/02 00:03:24;;;;;;;20.60;15.20;;;5.00;99.90;;;;;;5053715;28;20242;-76
2021/01/02 00:06:01;;;;;;;20.52;14.38;;;5.00;99.90;;;;;;5051483;28;20189;-76
2021/01/02 00:08:31;;;;;;;22.75;15.57;;;5.00;99.90;;;;;;5063796;28;20184;-77
2021/01/02 00:11:16;;;;;;;17.98;13.68;;;5.00;99.90;;;;;;5069071;28;20198;-76
2021/01/02 00:14:12;;;;;;;19.00;15.80;;;5.00;99.90;;;;;;5071316;28;20431;-76
2021/01/02 00:17:16;;;;;;;19.15;14.18;;;5.00;99.90;;;;;;5073644;28;20196;-77
2021/01/02 00:20:05;;;;;;;18.92;15.90;;;5.00;99.90;;;;;;5064708;28;20199;-75
2021/01/02 00:22:50;;;;;;;18.40;14.27;;;5.00;99.90;;;;;;5069594;28;20254;-77
2021/01/02 00:25:17;;;;;;;22.33;16.48;;;5.00;99.90;;;;;;5065275;28;20193;-76
2021/01/02 00:28:23;;;;;;;25.25;17.60;;;5.00;99.90;;;;;;5061303;28;20205;-79
2021/01/02 00:31:16;;;;;;;19.73;13.73;;;5.00;99.90;;;;;;5017591;28;20192;-78
2021/01/02 00:34:09;;;;;;;19.58;14.90;;;5.00;99.90;;;;;;5067797;28;20223;-77
2021/01/02 00:36:46;;;;;;;19.65;15.88;;;4.90;99.90;;;;;;5019356;28;20208;-78
2021/01/02 00:39:27;;;;;;;19.15;14.73;;;4.90;99.90;;;;;;5067437;28;20188;-79
2021/01/02 00:41:55;;;;;;;21.35;15.18;;;4.90;99.90;;;;;;5071397;28;20189;-78
2021/01/02 00:44:22;;;;;;;23.10;17.25;;;4.90;99.90;;;;;;5070590;28;20196;-76
2021/01/02 00:46:49;;;;;;;24.55;16.20;;;4.90;99.90;;;;;;5072203;28;20216;-78
2021/01/02 00:49:16;;;;;;;20.88;15.60;;;4.90;99.90;;;;;;5061164;28;20197;-78
2021/01/02 00:52:00;;;;;;;21.63;16.45;;;4.90;99.90;;;;;;5071726;28;20540;-75
2021/01/02 00:54:35;;;;;;;24.70;17.80;;;5.00;99.90;;;;;;5071969;28;20219;-76
2021/01/02 00:57:03;;;;;;;20.75;15.05;;;5.00;99.90;;;;;;5065897;28;20189;-76
2021/01/02 01:00:01;;;;;;;21.90;15.80;;;5.00;99.90;;;;;;5061963;28;20200;-76
2021/01/02 01:02:57;;;;;;;23.35;15.85;;;5.00;99.90;;;;;;5070810;28;20241;-76
2021/01/02 01:05:24;;;;;;;24.67;17.23;;;5.00;99.90;;;;;;5069207;28;20594;-77
2021/01/02 01:07:53;;;;;;;19.20;14.60;;;5.00;99.90;;;;;;5064581;28;20196;-78
2021/01/02 01:10:23;;;;;;;20.75;15.60;;;5.00;99.90;;;;;;5058197;28;20189;-76
2021/01/02 01:12:59;;;;;;;20.88;15.93;;;5.00;99.90;;;;;;5073033;28;20227;-77
2021/01/02 01:15:26;;;;;;;21.52;16.48;;;5.00;99.90;;;;;;5068897;28;20203;-75
2021/01/02 01:18:22;;;;;;;23.55;17.50;;;5.00;99.90;;;;;;5071772;28;20196;-78
2021/01/02 01:20:53;;;;;;;22.67;16.92;;;5.00;99.90;;;;;;5058071;28;20208;-76
2021/01/02 01:23:49;;;;;;;22.85;17.20;;;5.10;99.90;;;;;;5064842;28;20192;-77
2021/01/02 01:27:03;;;;;;;24.13;18.05;;;5.00;99.90;;;;;;5056210;28;20193;-78
2021/01/02 01:29:49;;;;;;;22.02;16.35;;;5.10;99.90;;;;;;5026346;28;20184;-76
2021/01/02 01:32:20;;;;;;;25.80;18.60;;;5.00;99.90;;;;;;5066994;28;20522;-77
2021/01/02 01:34:47;;;;;;;23.23;18.70;;;5.00;99.90;;;;;;5064580;28;20904;-75
2021/01/02 01:37:16;;;;;;;21.88;16.45;;;5.00;99.90;;;;;;5070825;28;20196;-76
2021/01/02 01:39:51;;;;;;;22.15;16.90;;;5.10;99.90;;;;;;5065350;28;20199;-76
2021/01/02 01:42:20;;;;;;;22.85;17.23;;;5.10;99.90;;;;;;5073482;28;20279;-76
2021/01/02 01:44:55;;;;;;;25.63;16.92;;;5.00;99.90;;;;;;5065218;28;20188;-76
2021/01/02 01:47:34;;;;;;;28.55;18.42;;;5.00;99.90;;;;;;5056782;28;20206;-76
2021/01/02 01:50:24;;;;;;;23.25;17.98;;;5.10;99.90;;;;;;5059319;28;20226;-75
2021/01/02 01:53:30;;;;;;;25.13;18.63;;;5.10;99.90;;;;;;5065833;28;20216;-77
2021/01/02 01:55:59;;;;;;;24.23;18.48;;;5.10;99.90;;;;;;5042506;28;20189;-78
2021/01/02 01:58:57;;;;;;;23.67;17.52;;;5.10;99.90;;;;;;5056516;28;20239;-76
2021/01/02 02:01:26;;;;;;;25.80;17.80;;;5.10;99.90;;;;;;5063455;28;20228;-78
2021/01/02 02:04:41;;;;;;;22.60;16.42;;;5.10;99.90;;;;;;5067451;28;20197;-77
2021/01/02 02:07:15;;;;;;;23.30;17.80;;;5.10;99.90;;;;;;5060668;28;20195;-76
2021/01/02 02:09:43;;;;;;;23.95;16.75;;;5.10;99.90;;;;;;5073084;28;20209;-75
2021/01/02 02:12:20;;;;;;;27.17;17.95;;;5.10;99.90;;;;;;5067360;28;20220;-75
2021/01/02 02:15:03;;;;;;;21.80;17.25;;;5.00;99.90;;;;;;5062657;28;20216;-76
2021/01/02 02:17:43;;;;;;;26.35;20.13;;;5.10;99.90;;;;;;5056774;28;20221;-76
2021/01/02 02:20:12;;;;;;;21.23;16.20;;;5.10;99.90;;;;;;5059207;28;20551;-77
2021/01/02 02:22:40;;;;;;;27.10;18.52;;;5.10;99.90;;;;;;5069921;28;20209;-76
2021/01/02 02:25:09;;;;;;;29.02;19.02;;;5.10;99.90;;;;;;5067507;28;20655;-77
2021/01/02 02:27:37;;;;;;;23.88;16.70;;;5.10;99.90;;;;;;5062102;28;20211;-78
2021/01/02 02:30:15;;;;;;;23.05;17.27;;;5.00;99.90;;;;;;5064325;28;20196;-75
2021/01/02 02:32:45;;;;;;;25.60;19.10;;;5.00;99.90;;;;;;5069177;28;20225;-75
2021/01/02 02:35:15;;;;;;;27.95;20.13;;;5.00;99.90;;;;;;5060775;28;20189;-76
2021/01/02 02:37:44;;;;;;;22.02;16.98;;;5.10;99.90;;;;;;5073092;28;20544;-76
2021/01/02 02:40:12;;;;;;;23.38;17.52;;;5.10;99.90;;;;;;5067808;28;20189;-78
2021/01/02 02:42:42;;;;;;;22.30;18.27;;;5.00;99.90;;;;;;5068086;28;20214;-77
2021/01/02 02:45:12;;;;;;;22.23;16.88;;;5.00;99.90;;;;;;5059602;28;20200;-75
2021/01/02 02:47:40;;;;;;;21.15;16.42;;;5.00;99.90;;;;;;5061374;28;20246;-75
2021/01/02 02:50:18;;;;;;;24.73;17.38;;;5.00;99.90;;;;;;5059867;28;20193;-76
2021/01/02 02:52:49;;;;;;;24.70;17.05;;;5.00;99.90;;;;;;5053982;28;20219;-76
2021/01/02 02:55:15;;;;;;;24.90;17.45;;;5.00;99.90;;;;;;5062441;28;20535;-76
2021/01/02 02:57:47;;;;;;;25.13;17.85;;;5.00;99.90;;;;;;5063311;28;20196;-76
2021/01/02 03:00:15;;;;;;;31.23;16.70;;;5.00;99.90;;;;;;5065904;28;20214;-75
2021/01/02 03:02:45;;;;;;;24.52;18.48;;;5.00;99.90;;;;;;5061928;28;20228;-75
2021/01/02 03:05:15;;;;;;;23.13;17.52;;;5.00;99.90;;;;;;5064108;28;20238;-77
2021/01/02 03:07:43;;;;;;;32.95;19.00;;;5.00;99.90;;;;;;5057748;28;20208;-77
2021/01/02 03:10:11;;;;;;;27.58;18.77;;;5.00;99.90;;;;;;5073332;28;20192;-76
2021/01/02 03:12:44;;;;;;;22.83;16.77;;;5.00;99.90;;;;;;5070345;28;20566;-77
2021/01/02 03:15:13;;;;;;;23.38;17.50;;;5.00;99.90;;;;;;5059411;28;20219;-76
2021/01/02 03:17:41;;;;;;;23.73;16.00;;;4.90;99.90;;;;;;5063158;28;20319;-76
2021/01/02 03:20:09;;;;;;;22.45;16.70;;;5.00;99.90;;;;;;5062953;28;20185;-76
2021/01/02 03:22:38;;;;;;;22.60;16.58;;;4.90;99.90;;;;;;5065622;28;20228;-76
2021/01/02 03:25:05;;;;;;;21.85;17.20;;;5.00;99.90;;;;;;5072154;28;20241;-75
2021/01/02 03:27:31;;;;;;;21.58;17.00;;;5.00;99.90;;;;;;5064505;28;20196;-76
2021/01/02 03:29:58;;;;;;;27.65;17.73;;;5.00;99.90;;;;;;5064871;28;20192;-75
2021/01/02 03:32:24;;;;;;;23.83;16.55;;;5.00;99.90;;;;;;5068292;28;20196;-78
2021/01/02 03:34:50;;;;;;;23.58;15.77;;;5.00;99.90;;;;;;5054433;28;20234;-76
2021/01/02 03:37:17;;;;;;;25.58;16.25;;;5.00;99.90;;;;;;5063906;28;20184;-76
2021/01/02 03:39:44;;;;;;;27.20;18.45;;;5.00;99.90;;;;;;5068272;28;20197;-76
2021/01/02 03:42:11;;;;;;;25.92;18.92;;;5.00;99.90;;;;;;5064544;28;20203;-75
2021/01/02 03:44:37;;;;;;;27.52;17.52;;;5.00;99.90;;;;;;5059371;28;20204;-76
2021/01/02 03:47:08;;;;;;;21.35;16.15;;;5.00;99.90;;;;;;5059752;28;20553;-77
2021/01/02 03:49:34;;;;;;;24.80;17.88;;;5.00;99.90;;;;;;5068517;28;20755;-77
2021/01/02 03:52:02;;;;;;;22.85;16.70;;;5.00;99.90;;;;;;5070274;28;20196;-78
2021/01/02 03:54:28;;;;;;;24.23;17.08;;;5.00;99.90;;;;;;5066562;28;20687;-76
2021/01/02 03:56:56;;;;;;;25.17;17.90;;;5.00;99.90;;;;;;5060700;28;20207;-76
2021/01/02 03:59:22;;;;;;;22.35;16.30;;;5.00;99.90;;;;;;5071236;28;20188;-77
2021/01/02 04:01:53;;;;;;;24.88;17.70;;;5.00;99.90;;;;;;5066288;28;20676;-76
2021/01/02 04:04:20;;;;;;;24.98;17.60;;;5.00;99.90;;;;;;5070872;28;20740;-76
2021/01/02 04:06:46;;;;;;;25.33;17.35;;;5.00;99.90;;;;;;5066563;28;20220;-76
2021/01/02 04:09:13;;;;;;;28.85;19.55;;;5.00;99.90;;;;;;5066175;28;20191;-76
2021/01/02 04:11:43;;;;;;;23.00;16.75;;;5.00;99.90;;;;;;5063178;28;20201;-78
2021/01/02 04:14:11;;;;;;;25.35;16.10;;;5.00;99.90;;;;;;5052112;28;20236;-78
2021/01/02 04:16:39;;;;;;;28.98;16.70;;;5.00;99.90;;;;;;5065383;28;20192;-76
2021/01/02 04:19:06;;;;;;;25.23;16.98;;;5.00;99.90;;;;;;5068655;28;20199;-79
2021/01/02 04:21:33;;;;;;;25.15;16.75;;;5.00;99.90;;;;;;5057879;28;20197;-78
2021/01/02 04:23:59;;;;;;;24.88;17.05;;;5.00;99.90;;;;;;5066496;28;20522;-77
2021/01/02 04:26:26;;;;;;;24.35;17.60;;;5.00;99.90;;;;;;5062942;28;20219;-75
2021/01/02 04:28:53;;;;;;;24.08;16.60;;;5.00;99.90;;;;;;5067266;28;20207;-76
2021/01/02 04:31:21;;;;;;;27.67;15.95;;;5.00;99.90;;;;;;5065330;28;20283;-76
2021/01/02 04:33:48;;;;;;;23.75;17.60;;;5.00;99.90;;;;;;5060154;28;20277;-78
2021/01/02 04:36:15;;;;;;;22.80;16.40;;;4.90;99.90;;;;;;5067672;28;20680;-76
2021/01/02 04:38:42;;;;;;;21.05;17.08;;;5.00;99.90;;;;;;5055210;28;20297;-75
2021/01/02 04:41:09;;;;;;;26.20;17.70;;;5.00;99.90;;;;;;5068417;28;20208;-77
2021/01/02 04:43:35;;;;;;;29.63;19.10;;;5.00;99.90;;;;;;5064949;28;20200;-77
2021/01/02 04:46:02;;;;;;;26.83;17.65;;;5.00;99.90;;;;;;5060564;28;20232;-76
2021/01/02 04:48:30;;;;;;;25.75;18.85;;;5.00;99.90;;;;;;5059966;28;20197;-75
2021/01/02 04:50:57;;;;;;;27.40;17.80;;;5.00;99.90;;;;;;5070098;28;20555;-76
2021/01/02 04:53:25;;;;;;;25.80;17.70;;;5.00;99.90;;;;;;5067355;28;20300;-77
2021/01/02 04:55:52;;;;;;;25.60;18.33;;;5.00;99.90;;;;;;5064735;28;20371;-76
2021/01/02 04:58:23;;;;;;;23.08;16.23;;;5.00;99.90;;;;;;5066220;28;20720;-76
2021/01/02 05:00:49;;;;;;;26.75;16.98;;;5.00;99.90;;;;;;5067321;28;20557;-75
2021/01/02 05:03:16;;;;;;;26.63;18.85;;;5.00;99.90;;;;;;5063930;28;20188;-76
2021/01/02 05:05:48;;;;;;;31.38;18.15;;;5.00;99.90;;;;;;5062226;28;20235;-76
2021/01/02 05:08:15;;;;;;;28.38;19.65;;;5.00;99.90;;;;;;5058709;28;20473;-79
2021/01/02 05:10:41;;;;;;;24.83;17.50;;;5.00;99.90;;;;;;5062724;28;20197;-77
2021/01/02 05:13:09;;;;;;;27.73;19.02;;;5.00;99.90;;;;;;5067106;28;20293;-76
2021/01/02 05:15:35;;;;;;;24.45;17.00;;;5.00;99.90;;;;;;5064592;28;20235;-75
2021/01/02 05:18:03;;;;;;;26.25;16.52;;;5.00;99.90;;;;;;5061834;28;20284;-75
2021/01/02 05:20:30;;;;;;;25.80;19.45;;;5.00;99.90;;;;;;5057855;28;20927;-75
2021/01/02 05:23:07;;;;;;;29.15;19.63;;;5.00;99.90;;;;;;5064994;28;20196;-76
2021/01/02 05:25:34;;;;;;;26.90;18.67;;;5.00;99.90;;;;;;5069522;28;20203;-76
2021/01/02 05:28:00;;;;;;;24.80;18.10;;;5.00;99.90;;;;;;5060731;28;20223;-75
2021/01/02 05:30:28;;;;;;;26.35;18.02;;;5.00;99.90;;;;;;5060652;28;20237;-76
2021/01/02 05:32:59;;;;;;;28.27;17.00;;;5.00;99.90;;;;;;5062784;28;20632;-77
2021/01/02 05:35:27;;;;;;;34.08;17.63;;;5.00;99.90;;;;;;5070011;28;20185;-75
2021/01/02 05:37:54;;;;;;;24.92;17.73;;;5.00;99.90;;;;;;5058172;28;20255;-75
2021/01/02 05:40:35;;;;;;;27.50;18.08;;;5.10;99.90;;;;;;5076080;28;20288;-77
2021/01/02 05:43:01;;;;;;;23.52;16.00;;;5.00;99.90;;;;;;5068909;28;20232;-76
2021/01/02 05:45:29;;;;;;;33.85;18.50;;;5.00;99.90;;;;;;5060147;28;20201;-75
2021/01/02 05:47:58;;;;;;;28.73;18.73;;;5.00;99.90;;;;;;5061820;28;20196;-77
2021/01/02 05:50:24;;;;;;;26.95;17.15;;;5.10;99.90;;;;;;5069644;28;20197;-75
2021/01/02 05:52:52;;;;;;;27.38;18.33;;;5.00;99.90;;;;;;5066964;28;20271;-77
2021/01/02 05:55:31;;;;;;;29.02;18.05;;;5.00;99.90;;;;;;5073707;28;20201;-76
2021/01/02 05:58:15;;;;;;;26.73;18.83;;;5.00;99.90;;;;;;5068322;28;20189;-76
2021/01/02 06:00:45;;;;;;;26.75;17.40;;;5.00;99.90;;;;;;5066573;28;20196;-77
2021/01/02 06:03:26;;;;;;;25.08;17.45;;;5.00;99.90;;;;;;5065598;28;20203;-76
2021/01/02 06:05:59;;;;;;;30.30;19.45;;;5.00;99.90;;;;;;5059900;28;20232;-76
2021/01/02 06:08:47;;;;;;;27.27;18.98;;;5.00;99.90;;;;;;5058699;28;20189;-76
2021/01/02 06:11:15;;;;;;;25.92;18.50;;;5.00;99.90;;;;;;5060681;28;20192;-76
2021/01/02 06:13:43;;;;;;;21.30;16.30;;;5.00;99.90;;;;;;5074004;28;20220;-77
2021/01/02 06:16:10;;;;;;;27.33;18.70;;;5.00;99.90;;;;;;5071892;28;20215;-76
2021/01/02 06:18:38;;;;;;;21.48;16.98;;;5.00;99.90;;;;;;5066576;28;20283;-75
2021/01/02 06:21:07;;;;;;;23.40;16.25;;;5.00;99.90;;;;;;5067848;28;20215;-76
2021/01/02 06:23:35;;;;;;;34.85;20.00;;;5.00;99.90;;;;;;5058266;28;20223;-77
2021/01/02 06:26:04;;;;;;;34.88;19.92;;;5.00;99.90;;;;;;5072026;28;20200;-76
2021/01/02 06:28:32;;;;;;;31.48;19.38;;;4.90;99.90;;;;;;5069311;28;20197;-76
2021/01/02 06:31:00;;;;;;;25.75;17.88;;;5.00;99.90;;;;;;5062358;28;20193;-76
2021/01/02 06:33:28;;;;;;;24.45;18.55;;;5.00;99.90;;;;;;5061595;28;20235;-77
2021/01/02 06:35:54;;;;;;;26.00;18.45;;;5.00;99.90;;;;;;5068994;28;20192;-76
2021/01/02 06:38:21;;;;;;;32.33;18.08;;;5.00;99.90;;;;;;5069219;28;20193;-78
2021/01/02 06:40:49;;;;;;;25.20;18.38;;;4.90;99.90;;;;;;5063486;28;20201;-76
2021/01/02 06:43:18;;;;;;;25.52;17.67;;;4.90;99.90;;;;;;5060040;28;20292;-77
2021/01/02 06:46:00;;;;;;;28.95;17.80;;;4.90;99.90;;;;;;5064369;28;20205;-75
2021/01/02 06:48:43;;;;;;;27.10;17.48;;;4.90;99.90;;;;;;5065533;28;20200;-76
2021/01/02 06:51:32;;;;;;;28.17;18.33;;;4.90;99.90;;;;;;5056645;28;20219;-76
2021/01/02 06:54:03;;;;;;;30.20;18.60;;;4.90;99.90;;;;;;5062813;28;20216;-75
2021/01/02 06:56:34;;;;;;;27.27;17.60;;;4.90;99.90;;;;;;5073051;28;20193;-77
2021/01/02 06:59:01;;;;;;;27.95;18.23;;;4.90;99.90;;;;;;5073962;28;20239;-76
2021/01/02 07:01:44;;;;;;;27.50;17.83;;;4.90;99.90;;;;;;5064356;28;20231;-76
2021/01/02 07:04:11;;;;;;;29.55;17.50;;;4.90;99.90;;;;;;5070355;28;20192;-77
2021/01/02 07:06:42;;;;;;;33.30;18.70;;;4.90;99.90;;;;;;5065429;28;20184;-75
2021/01/02 07:09:23;;;;;;;26.27;16.85;;;4.90;99.90;;;;;;5056105;28;20280;-75
2021/01/02 07:11:51;;;;;;;27.17;18.25;;;4.90;99.90;;;;;;5068908;28;20203;-78
2021/01/02 07:14:28;;;;;;;26.23;17.17;;;4.90;99.90;;;;;;5059501;28;20255;-76
2021/01/02 07:16:58;;;;;;;24.58;17.77;;;4.90;99.90;;;;;;5065475;28;20202;-76
2021/01/02 07:19:38;;;;;;;30.92;17.98;;;4.90;99.90;;;;;;5059459;28;20196;-76
2021/01/02 07:22:07;;;;;;;28.73;17.60;;;4.90;99.90;;;;;;5060576;28;20220;-77
2021/01/02 07:24:39;;;;;;;31.67;19.55;;;4.90;99.90;;;;;;5057901;28;20196;-77
2021/01/02 07:27:08;;;;;;;28.48;19.10;;;4.90;99.90;;;;;;5056672;28;20291;-75
2021/01/02 07:29:35;;;;;;;27.45;19.08;;;4.90;99.90;;;;;;5063373;28;20238;-76
2021/01/02 07:32:11;;;;;;;30.40;17.17;;;4.90;99.90;;;;;;5061653;28;20200;-77
2021/01/02 07:34:38;;;;;;;27.52;19.02;;;5.00;99.90;;;;;;5061611;28;20223;-76
2021/01/02 07:37:07;;;;;;;26.25;17.92;;;4.90;99.90;;;;;;5063979;28;20697;-76
2021/01/02 07:39:34;;;;;;;28.83;18.85;;;5.00;99.90;;;;;;5062507;28;20205;-78
2021/01/02 07:42:04;;;;;;;26.65;18.65;;;5.00;99.90;;;;;;5069784;28;20196;-76
2021/01/02 07:44:30;;;;;;;23.10;16.67;;;5.00;99.90;;;;;;5067663;28;20196;-78
2021/01/02 07:46:57;;;;;;;31.33;19.55;;;5.00;99.90;;;;;;5060789;28;20202;-76
2021/01/02 07:49:24;;;;;;;25.25;18.10;;;5.00;99.90;;;;;;5066861;28;20201;-76
2021/01/02 07:51:50;;;;;;;31.45;18.02;;;5.00;99.90;;;;;;5064537;28;20193;-78
2021/01/02 07:54:36;;;;;;;29.02;18.55;;;5.00;99.90;;;;;;5059058;28;20574;-76
2021/01/02 07:57:05;;;;;;;29.73;19.25;;;5.00;99.90;;;;;;5067597;28;20232;-75
2021/01/02 07:59:32;;;;;;;27.85;17.95;;;5.00;99.90;;;;;;5063661;28;20215;-76
2021/01/02 08:02:00;;;;;;;24.83;18.58;;;5.00;99.90;;;;;;5064558;28;20224;-76
2021/01/02 08:04:28;;;;;;;26.60;19.98;;;5.00;99.90;;;;;;5060282;28;20218;-75
2021/01/02 08:06:57;;;;;;;35.70;20.33;;;5.00;99.90;;;;;;5064584;28;20239;-75
2021/01/02 08:09:23;;;;;;;35.50;21.27;;;5.00;99.90;;;;;;5070359;28;20671;-77
2021/01/02 08:11:52;;;;;;;32.53;19.88;;;5.00;99.90;;;;;;5058749;28;20195;-77
2021/01/02 08:14:19;;;;;;;37.40;21.42;;;5.00;99.90;;;;;;5062385;28;20369;-75
2021/01/02 08:17:00;;;;;;;35.35;20.92;;;5.00;99.90;;;;;;5067661;28;20197;-76
2021/01/02 08:19:32;;;;;;;32.47;21.20;;;5.00;99.90;;;;;;5056983;28;20198;-77
2021/01/02 08:22:00;;;;;;;35.30;20.75;;;5.10;99.90;;;;;;5054052;28;20197;-77
2021/01/02 08:24:27;;;;;;;34.67;20.88;;;5.10;99.90;;;;;;5069892;28;20193;-75
2021/01/02 08:26:54;;;;;;;34.78;21.60;;;5.00;99.90;;;;;;5061575;28;20204;-76
2021/01/02 08:29:21;;;;;;;31.02;20.02;;;5.10;99.90;;;;;;5060004;28;20591;-74
2021/01/02 08:31:54;;;;;;;29.05;19.42;;;5.10;99.90;;;;;;5066240;28;20291;-74
2021/01/02 08:34:32;;;;;;;27.92;18.38;;;5.10;99.90;;;;;;5070247;28;20350;-76
2021/01/02 08:37:00;;;;;;;28.58;18.50;;;5.10;99.90;;;;;;5064942;28;20197;-76
2021/01/02 08:39:27;;;;;;;31.02;18.70;;;5.10;99.90;;;;;;5067408;28;20192;-77
2021/01/02 08:41:54;;;;;;;27.02;19.25;;;5.20;99.90;;;;;;5072622;28;20200;-75
2021/01/02 08:44:24;;;;;;;26.13;19.85;;;5.20;99.90;;;;;;5066532;28;20561;-78
2021/01/02 08:46:50;;;;;;;27.30;19.10;;;5.20;99.90;;;;;;5070970;28;20631;-75
2021/01/02 08:49:41;;;;;;;31.75;19.85;;;5.20;99.90;;;;;;5065806;28;20191;-77
2021/01/02 08:52:33;;;;;;;27.48;18.35;;;5.20;99.90;;;;;;5067497;28;20790;-75
2021/01/02 08:55:08;;;;;;;24.60;17.58;;;5.20;99.90;;;;;;5072034;28;20223;-77
2021/01/02 08:57:41;;;;;;;24.30;17.10;;;5.20;99.90;;;;;;5071862;28;20206;-76
2021/01/02 09:00:19;;;;;;;27.27;16.83;;;5.30;99.90;;;;;;5067590;28;20200;-75
2021/01/02 09:02:48;;;;;;;28.52;17.80;;;5.20;99.90;;;;;;5063294;28;20825;-76
2021/01/02 09:05:17;;;;;;;22.45;15.75;;;5.30;99.90;;;;;;5059389;28;20628;-77
2021/01/02 09:07:54;;;;;;;24.27;15.85;;;5.30;99.90;;;;;;5069939;28;20223;-75
2021/01/02 09:10:23;;;;;;;23.98;16.40;;;5.50;99.90;;;;;;5067344;28;20267;-77
2021/01/02 09:12:59;;;;;;;27.13;17.45;;;5.60;99.90;;;;;;5074661;28;20249;-76
2021/01/02 09:15:43;;;;;;;24.83;17.42;;;5.70;99.90;;;;;;5067910;28;20208;-75
2021/01/02 09:18:09;;;;;;;27.25;17.27;;;5.70;99.90;;;;;;5068390;28;20196;-75
2021/01/02 09:20:37;;;;;;;25.83;18.73;;;5.70;99.90;;;;;;5066154;28;20288;-78
2021/01/02 09:23:05;;;;;;;27.45;17.00;;;5.70;99.90;;;;;;5063631;28;20645;-78
2021/01/02 09:25:32;;;;;;;28.17;18.80;;;5.70;99.90;;;;;;5072831;28;20224;-76
2021/01/02 09:28:10;;;;;;;24.20;16.52;;;5.60;99.90;;;;;;5067590;28;20224;-76
2021/01/02 09:30:37;;;;;;;28.08;19.92;;;5.60;99.90;;;;;;5064094;28;20189;-76
2021/01/02 09:33:04;;;;;;;29.55;19.15;;;5.60;99.90;;;;;;5063403;28;20201;-77
2021/01/02 09:35:30;;;;;;;29.75;17.15;;;5.60;99.90;;;;;;5065586;28;20246;-77
2021/01/02 09:37:57;;;;;;;25.80;17.65;;;5.60;99.90;;;;;;5060812;28;20211;-76
2021/01/02 09:40:25;;;;;;;27.02;17.27;;;5.60;99.90;;;;;;5064211;28;20193;-76
2021/01/02 09:42:51;;;;;;;26.60;16.33;;;5.60;99.90;;;;;;5060249;28;20199;-76
2021/01/02 09:45:18;;;;;;;27.50;18.27;;;5.60;99.90;;;;;;5061264;28;20678;-75
2021/01/02 09:47:44;;;;;;;30.40;18.13;;;5.60;99.90;;;;;;5057374;28;20253;-78
2021/01/02 09:50:11;;;;;;;27.08;17.80;;;5.60;99.90;;;;;;5065006;28;20189;-76
2021/01/02 09:52:38;;;;;;;30.17;17.17;;;5.60;99.90;;;;;;5069858;28;20232;-75
2021/01/02 09:55:05;;;;;;;28.77;18.30;;;5.60;99.90;;;;;;5060452;28;20224;-77
2021/01/02 09:57:32;;;;;;;25.98;17.30;;;5.60;99.90;;;;;;5061310;28;20200;-75
2021/01/02 09:59:59;;;;;;;27.85;18.17;;;5.60;99.90;;;;;;5064330;28;20254;-76
2021/01/02 10:02:25;;;;;;;35.22;17.45;;;5.60;99.90;;;;;;5065682;28;20229;-79
2021/01/02 10:04:54;;;;;;;32.95;19.25;;;5.70;99.90;;;;;;5060862;28;20232;-75
2021/01/02 10:07:20;;;;;;;27.70;17.98;;;5.70;99.90;;;;;;5063206;28;20252;-76
2021/01/02 10:09:47;;;;;;;30.65;18.05;;;5.70;99.90;;;;;;5057099;28;20286;-76
2021/01/02 10:12:15;;;;;;;26.15;18.05;;;5.70;99.90;;;;;;5062627;28;20185;-76
2021/01/02 10:14:43;;;;;;;30.33;18.42;;;5.70;99.90;;;;;;5057596;28;20224;-75
2021/01/02 10:17:10;;;;;;;28.10;17.15;;;5.70;99.90;;;;;;5064330;28;20554;-77
2021/01/02 10:19:41;;;;;;;29.90;17.20;;;5.70;99.90;;;;;;5058692;28;20196;-77
2021/01/02 10:22:08;;;;;;;28.00;18.38;;;5.70;99.90;;;;;;5059301;28;20327;-75
2021/01/02 10:24:34;;;;;;;26.77;18.13;;;5.70;99.90;;;;;;5063252;28;20222;-75
2021/01/02 10:27:01;;;;;;;29.15;18.67;;;5.70;99.90;;;;;;5056502;28;20554;-76
2021/01/02 10:29:28;;;;;;;30.67;18.25;;;5.70;99.90;;;;;;5058460;28;20287;-75
2021/01/02 10:31:59;;;;;;;37.05;19.30;;;5.70;99.90;;;;;;5064131;28;20193;-75
2021/01/02 10:34:25;;;;;;;32.78;22.20;;;5.70;99.90;;;;;;5058769;28;20217;-76
2021/01/02 10:36:52;;;;;;;37.25;20.08;;;5.70;99.90;;;;;;5061791;28;20200;-75
2021/01/02 10:39:18;;;;;;;33.33;19.20;;;5.70;99.90;;;;;;5064008;28;20203;-75
2021/01/02 10:41:46;;;;;;;34.33;19.50;;;5.70;99.90;;;;;;5058893;28;20644;-76
2021/01/02 10:44:13;;;;;;;33.67;19.92;;;5.70;99.90;;;;;;5054112;28;20196;-75
2021/01/02 10:46:44;;;;;;;41.67;19.58;;;5.70;99.90;;;;;;5059103;28;20607;-75
2021/01/02 10:49:11;;;;;;;31.30;19.25;;;5.80;99.90;;;;;;5056763;28;20302;-75
2021/01/02 10:51:39;;;;;;;34.28;20.52;;;5.80;99.90;;;;;;5056646;28;20648;-76
2021/01/02 10:54:05;;;;;;;32.30;17.58;;;5.80;99.90;;;;;;5062120;28;20259;-75
2021/01/02 10:56:32;;;;;;;39.72;22.17;;;5.80;99.90;;;;;;5064428;28;20250;-76
2021/01/02 10:58:59;;;;;;;35.15;20.25;;;5.80;99.90;;;;;;5068426;28;20200;-75
2021/01/02 11:01:26;;;;;;;30.33;19.42;;;5.80;99.90;;;;;;5054404;28;20295;-76
2021/01/02 11:03:52;;;;;;;30.80;19.75;;;5.80;99.90;;;;;;5064020;28;20259;-76
2021/01/02 11:06:20;;;;;;;33.58;19.40;;;5.80;99.90;;;;;;5058013;28;20197;-75
2021/01/02 11:08:47;;;;;;;32.85;17.42;;;5.80;99.90;;;;;;5058375;28;20193;-76
2021/01/02 11:11:19;;;;;;;31.58;18.55;;;5.90;99.90;;;;;;5056594;28;20200;-75
2021/01/02 11:13:46;;;;;;;35.85;19.33;;;5.90;99.90;;;;;;5052807;28;20238;-77
2021/01/02 11:16:12;;;;;;;35.08;20.77;;;5.80;99.90;;;;;;5069589;28;20213;-76
2021/01/02 11:18:38;;;;;;;26.80;17.75;;;5.80;99.90;;;;;;5066678;28;20202;-74
2021/01/02 11:21:09;;;;;;;33.83;17.67;;;5.90;99.90;;;;;;5060588;28;20193;-74
2021/01/02 11:23:36;;;;;;;31.63;18.38;;;5.90;99.90;;;;;;5063101;28;20283;-74
2021/01/02 11:26:08;;;;;;;29.73;19.20;;;5.90;99.90;;;;;;5062630;28;20195;-76
2021/01/02 11:28:34;;;;;;;33.80;20.38;;;5.80;99.90;;;;;;5056623;28;20200;-75
2021/01/02 11:31:00;;;;;;;31.33;17.98;;;5.90;99.90;;;;;;5066074;28;20211;-76
2021/01/02 11:33:27;;;;;;;31.85;18.70;;;5.90;99.90;;;;;;5064029;28;20555;-74
2021/01/02 11:35:53;;;;;;;34.35;20.23;;;5.90;99.90;;;;;;5063231;28;20245;-75
2021/01/02 11:38:20;;;;;;;35.75;20.33;;;5.90;99.90;;;;;;5068279;28;20670;-76
2021/01/02 11:40:50;;;;;;;30.42;18.80;;;5.90;99.90;;;;;;5063654;28;20196;-74
2021/01/02 11:43:17;;;;;;;28.75;18.60;;;5.90;99.90;;;;;;5070509;28;20226;-75
2021/01/02 11:45:45;;;;;;;30.60;18.42;;;5.90;99.90;;;;;;5060962;28;20192;-77
2021/01/02 11:48:12;;;;;;;36.22;19.30;;;5.90;99.90;;;;;;5060581;28;20193;-74
2021/01/02 11:50:39;;;;;;;29.65;19.35;;;5.90;99.90;;;;;;5066128;28;20677;-74
2021/01/02 11:53:05;;;;;;;35.25;18.98;;;6.00;99.90;;;;;;5065772;28;20648;-77
2021/01/02 11:55:32;;;;;;;32.72;17.75;;;6.00;99.90;;;;;;5064307;28;20228;-76
2021/01/02 11:57:59;;;;;;;28.98;18.33;;;6.00;99.90;;;;;;5060969;28;20605;-76
2021/01/02 12:00:26;;;;;;;35.05;19.55;;;6.00;99.90;;;;;;5059755;28;20196;-76
2021/01/02 12:02:52;;;;;;;34.67;19.30;;;6.00;99.90;;;;;;5060040;28;20242;-74
2021/01/02 12:05:19;;;;;;;35.55;19.80;;;6.00;99.90;;;;;;5062449;28;20259;-75
2021/01/02 12:07:46;;;;;;;30.85;19.10;;;6.00;99.90;;;;;;5056214;28;20201;-77
2021/01/02 12:10:12;;;;;;;33.83;19.75;;;6.00;99.90;;;;;;5062554;28;20185;-76
2021/01/02 12:12:39;;;;;;;31.95;19.27;;;6.00;99.90;;;;;;5066322;28;20196;-75
2021/01/02 12:15:07;;;;;;;41.90;21.38;;;6.00;99.90;;;;;;5064646;28;20225;-74
2021/01/02 12:17:34;;;;;;;37.00;19.40;;;6.00;99.90;;;;;;5062543;28;20193;-74
2021/01/02 12:20:02;;;;;;;44.30;22.17;;;6.00;99.90;;;;;;5053874;28;20717;-73
2021/01/02 12:22:30;;;;;;;33.25;20.50;;;6.10;99.90;;;;;;5063810;28;20560;-78
2021/01/02 12:24:57;;;;;;;36.15;20.15;;;6.10;99.90;;;;;;5064890;28;20189;-73
2021/01/02 12:27:23;;;;;;;39.03;20.77;;;6.00;99.90;;;;;;5065361;28;20240;-74
2021/01/02 12:29:49;;;;;;;35.92;21.75;;;6.00;99.90;;;;;;5065305;28;20204;-74
2021/01/02 12:32:17;;;;;;;34.63;19.65;;;6.00;99.90;;;;;;5065109;28;20308;-75
2021/01/02 12:34:45;;;;;;;41.58;23.98;;;6.00;99.90;;;;;;5060724;28;20324;-75
2021/01/02 12:37:13;;;;;;;39.33;21.90;;;6.10;99.90;;;;;;5060845;28;20293;-74
2021/01/02 12:39:41;;;;;;;41.88;22.17;;;6.00;99.90;;;;;;5066368;28;20193;-76
2021/01/02 12:42:08;;;;;;;44.17;23.00;;;6.10;99.90;;;;;;5061562;28;20266;-76
2021/01/02 12:44:34;;;;;;;45.90;21.15;;;6.10;99.90;;;;;;5056638;28;20192;-76
2021/01/02 12:47:04;;;;;;;37.00;22.90;;;6.10;99.90;;;;;;5062509;28;20215;-75
2021/01/02 12:49:32;;;;;;;38.25;20.08;;;6.10;99.90;;;;;;5067033;28;20234;-75
2021/01/02 12:52:01;;;;;;;39.50;23.02;;;6.10;99.90;;;;;;5059951;28;20284;-76
2021/01/02 12:54:27;;;;;;;38.28;21.35;;;6.10;99.90;;;;;;5062390;28;20215;-75